Portada
METAR-TAF:

METAR-TAF

Aeropuertos :

Aeropuerto Internacional de Shanghái-Pudong

Shanghái-Pudong, China

latitud: 31-07N, longitud: 121-46E, altitud: 4 m

Observación

El informe se hizo hace 25 minutos, a las 21:00 UTC
Viento 12 kt del norte
Temperatura 12°C
Humedad 88%
Presión 1022 hPa
Visibilidad 10 km o más
Nubes dispersas a una altura de 1000 ft
Cielo cubierto a una altura de 3300 ft

METAR: ZSPD 172100Z 01006MPS 9999 SCT010 OVC033 12/10 Q1022 NOSIG

Hora: 05:25 (21:25 UTC)

Pronóstico

El informe se hizo hace 6 horas y 12 minutos, a las 15:13 UTC
Pronóstico válido del 17 a las 18 UTC al 18 a las 18 UTC
Viento 8 kt del noreste
Visibilidad: 6000 m
Cielo nuboso a una altura de 1500 ft

TAF: ZSPD 171513Z 1718/1818 04004MPS 6000 BKN015 TX16/1806Z TN12/1721Z

Observaciones y pronósticos meteorológicos de más de 4000 aeropuertos (mensajes METAR y TAF).

Los puntos amarillos y rojos representan las estaciones disponibles.

Ponga el ratón en el punto deseado para ver el nombre de la estación.

Haga clic para ver las observaciones y los pronósticos meteorológicos.

Para cambiar el mapa : haga clic en los botones verdes con una cruz de color negro para hacer un zoom, en el botón verde con un guión para alejar o en las flechas verdes para mapas adyacentes.


METAR-TAF: